Time;durP1;ratioP1;P1;durP2;ratioP2;P2;SDS_P1;SDS_P2;PMS_P1;PMS_P2;Temp;Humidity;BMP_temperature;BMP_pressure;BME280_temperature;BME280_humidity;BME280_pressure;Samples;Min_cycle;Max_cycle;Signal;HPM_P1;HPM_P2
2022/01/18 05:40:45;;;;;;;15.50;9.80;;;2.70;99.40;;;;;;6219586;22;20244;-87
2022/01/18 05:43:12;;;;;;;14.37;10.20;;;2.70;99.40;;;;;;6217871;23;20506;-82
2022/01/18 05:45:39;;;;;;;21.30;14.33;;;2.60;99.70;;;;;;6218026;23;20170;-82
2022/01/18 05:48:07;;;;;;;14.77;10.10;;;2.60;99.70;;;;;;6218539;23;20181;-82
2022/01/18 05:50:35;;;;;;;15.17;9.73;;;2.70;99.80;;;;;;6218221;23;20691;-84
2022/01/18 05:53:20;;;;;;;12.83;9.73;;;2.70;99.60;;;;;;6250737;23;20471;-83
2022/01/18 05:55:49;;;;;;;16.20;10.10;;;2.60;99.40;;;;;;6251228;23;20482;-82
2022/01/18 05:58:16;;;;;;;14.50;9.77;;;2.60;99.40;;;;;;6251462;23;20544;-82
2022/01/18 06:01:25;;;;;;;14.40;9.83;;;2.60;99.40;;;;;;6251820;23;20248;-82
2022/01/18 06:04:18;;;;;;;15.07;10.07;;;2.50;99.40;;;;;;6247692;23;20248;-84
2022/01/18 06:06:50;;;;;;;15.57;9.97;;;2.50;99.40;;;;;;6252048;23;20165;-82
2022/01/18 06:09:35;;;;;;;17.27;10.87;;;2.40;99.80;;;;;;6251351;23;20185;-82
2022/01/18 06:12:04;;;;;;;16.57;10.50;;;2.30;99.70;;;;;;6248395;23;20550;-85
2022/01/18 06:14:33;;;;;;;15.60;9.73;;;2.30;99.70;;;;;;6248402;23;20180;-84
2022/01/18 06:17:00;;;;;;;15.17;9.83;;;2.20;99.60;;;;;;6248207;23;20200;-88
2022/01/18 06:19:27;;;;;;;15.50;9.40;;;2.20;99.60;;;;;;6244957;23;20201;-87
2022/01/18 06:21:58;;;;;;;16.00;9.83;;;2.20;99.70;;;;;;6246690;23;20196;-86
2022/01/18 06:24:26;;;;;;;14.43;9.53;;;2.10;99.60;;;;;;6242935;23;20207;-85
2022/01/18 06:26:53;;;;;;;14.80;10.60;;;2.10;99.70;;;;;;6249121;23;20173;-86
2022/01/18 06:29:22;;;;;;;19.17;11.27;;;2.00;99.90;;;;;;6251548;22;20264;-83
2022/01/18 06:31:49;;;;;;;15.80;10.90;;;2.10;99.90;;;;;;6249716;23;20170;-86
2022/01/18 06:34:17;;;;;;;16.87;10.63;;;2.10;99.90;;;;;;6221776;23;20204;-82
2022/01/18 06:36:44;;;;;;;13.50;10.47;;;2.30;99.90;;;;;;6250348;23;20173;-83
2022/01/18 06:39:11;;;;;;;14.87;10.97;;;2.60;99.90;;;;;;6249545;23;20271;-85
2022/01/18 06:41:39;;;;;;;17.63;10.33;;;2.80;99.90;;;;;;6252134;23;20554;-83
2022/01/18 06:44:13;;;;;;;15.40;10.90;;;2.90;99.80;;;;;;6249467;23;20240;-83
2022/01/18 06:46:42;;;;;;;14.37;10.47;;;2.80;99.50;;;;;;6251320;23;20165;-84
2022/01/18 06:49:09;;;;;;;16.33;10.93;;;2.70;99.60;;;;;;6255839;23;20196;-86
2022/01/18 06:51:36;;;;;;;19.87;11.27;;;2.70;99.80;;;;;;6251858;23;20798;-84
2022/01/18 06:54:04;;;;;;;18.13;11.40;;;2.90;99.90;;;;;;6248589;23;20573;-83
2022/01/18 06:56:30;;;;;;;16.83;10.73;;;3.10;99.90;;;;;;6250768;23;20644;-83
2022/01/18 06:58:57;;;;;;;17.73;10.93;;;3.30;99.30;;;;;;6250881;23;20512;-84
2022/01/18 07:01:25;;;;;;;15.50;10.73;;;3.30;98.70;;;;;;6250904;23;20183;-84
2022/01/18 07:03:53;;;;;;;14.47;10.80;;;3.40;99.10;;;;;;6250391;23;20215;-84
2022/01/18 07:06:20;;;;;;;18.77;11.00;;;3.60;98.50;;;;;;6252647;23;20177;-84
2022/01/18 07:08:47;;;;;;;16.37;10.93;;;3.60;98.40;;;;;;6252338;23;20281;-84
2022/01/18 07:11:16;;;;;;;18.50;11.57;;;3.60;98.00;;;;;;6252217;23;20201;-86
2022/01/18 07:13:43;;;;;;;14.67;10.83;;;3.50;97.70;;;;;;6250001;23;20193;-85
2022/01/18 07:16:10;;;;;;;16.00;11.20;;;3.60;98.20;;;;;;6251840;23;20169;-83
2022/01/18 07:18:37;;;;;;;19.73;10.87;;;3.70;97.70;;;;;;6250608;23;20292;-86
2022/01/18 07:21:06;;;;;;;14.37;10.23;;;4.00;97.70;;;;;;6252018;23;20183;-85
2022/01/18 07:23:34;;;;;;;17.37;11.10;;;4.00;97.20;;;;;;6250277;23;20262;-88
2022/01/18 07:26:01;;;;;;;18.87;10.67;;;3.90;97.50;;;;;;6251374;23;20199;-86
2022/01/18 07:28:28;;;;;;;15.67;11.07;;;3.90;97.20;;;;;;6249709;23;20264;-84
2022/01/18 07:30:55;;;;;;;15.90;10.47;;;4.10;97.50;;;;;;6250423;23;20656;-83
2022/01/18 07:33:22;;;;;;;15.47;10.87;;;4.30;96.50;;;;;;6250233;23;20284;-84
2022/01/18 07:35:50;;;;;;;15.53;9.93;;;4.50;96.00;;;;;;6250954;23;20209;-84
2022/01/18 07:38:19;;;;;;;14.60;10.43;;;4.60;95.40;;;;;;6249897;23;20197;-84
2022/01/18 07:40:48;;;;;;;14.73;9.83;;;4.80;95.00;;;;;;6249828;23;20621;-84
2022/01/18 07:43:17;;;;;;;14.90;10.10;;;4.70;95.00;;;;;;6249288;23;20203;-84
2022/01/18 07:45:45;;;;;;;14.63;9.97;;;4.60;95.00;;;;;;6250094;23;20169;-83
2022/01/18 07:48:12;;;;;;;16.87;10.57;;;4.70;95.00;;;;;;6249175;23;20197;-84
2022/01/18 07:50:40;;;;;;;15.27;9.30;;;4.60;95.00;;;;;;6250132;23;20219;-84
2022/01/18 07:53:07;;;;;;;15.50;9.83;;;4.60;94.90;;;;;;6249843;23;20510;-83
2022/01/18 07:55:36;;;;;;;13.83;9.70;;;4.80;94.40;;;;;;6250309;23;20179;-83
2022/01/18 07:58:03;;;;;;;13.93;8.87;;;4.80;94.10;;;;;;6250493;23;20520;-85
2022/01/18 08:00:34;;;;;;;15.87;10.03;;;4.90;94.10;;;;;;6252075;23;20647;-85
2022/01/18 08:03:01;;;;;;;13.53;8.47;;;5.10;94.00;;;;;;6250795;23;20216;-85
2022/01/18 08:05:28;;;;;;;14.80;7.67;;;5.00;93.20;;;;;;6251933;23;20173;-85
2022/01/18 08:07:55;;;;;;;13.63;8.00;;;4.90;92.40;;;;;;6251105;22;20217;-85
2022/01/18 08:10:29;;;;;;;14.50;8.57;;;4.90;93.10;;;;;;6251605;23;20189;-84
2022/01/18 08:13:22;;;;;;;15.60;8.40;;;5.00;93.20;;;;;;6251519;23;20251;-84
2022/01/18 08:45:07;;;;;;;15.53;8.00;;;5.50;92.20;;;;;;6230355;22;20206;-86
2022/01/18 08:47:34;;;;;;;11.30;7.37;;;5.60;91.50;;;;;;6220963;23;20159;-86
2022/01/18 08:50:31;;;;;;;12.90;7.93;;;5.50;92.10;;;;;;6221828;23;20484;-86
2022/01/18 08:52:58;;;;;;;12.93;7.73;;;5.40;91.30;;;;;;6220926;23;20541;-86
2022/01/18 08:55:25;;;;;;;13.40;9.17;;;5.50;91.90;;;;;;6221347;23;20257;-86
2022/01/18 08:57:52;;;;;;;12.77;8.77;;;5.50;91.50;;;;;;6220997;23;20205;-86
2022/01/18 09:00:40;;;;;;;13.10;9.50;;;5.50;92.30;;;;;;6222377;23;20265;-86
2022/01/18 09:03:08;;;;;;;13.77;9.33;;;5.40;92.30;;;;;;6219985;23;20198;-86
2022/01/18 09:05:38;;;;;;;13.03;9.03;;;5.50;92.90;;;;;;6220719;23;20162;-86
2022/01/18 09:08:07;;;;;;;14.63;9.50;;;5.60;92.50;;;;;;6220330;23;20186;-86
2022/01/18 09:10:34;;;;;;;13.03;8.57;;;5.80;92.20;;;;;;6219884;23;20633;-86
2022/01/18 09:13:01;;;;;;;12.27;8.97;;;5.90;91.80;;;;;;6220250;23;20285;-86
2022/01/18 09:18:52;;;;;;;12.73;7.67;;;5.80;90.70;;;;;;6224434;22;20216;-86
2022/01/18 09:21:36;;;;;;;15.07;7.87;;;5.80;90.60;;;;;;6223062;23;20243;-86
2022/01/18 09:24:04;;;;;;;12.87;7.60;;;5.80;90.40;;;;;;6220743;23;20205;-86
2022/01/18 09:26:31;;;;;;;15.53;8.90;;;6.00;91.10;;;;;;6222269;23;20252;-86
2022/01/18 09:28:58;;;;;;;13.70;8.33;;;6.00;89.60;;;;;;6219953;23;20221;-86
2022/01/18 09:31:25;;;;;;;14.60;8.63;;;6.00;90.30;;;;;;6220863;23;20225;-85
2022/01/18 09:33:53;;;;;;;14.73;8.17;;;5.70;89.40;;;;;;6221033;23;20222;-86
2022/01/18 09:36:29;;;;;;;11.93;8.43;;;5.70;91.60;;;;;;6222299;23;20170;-86
2022/01/18 09:38:57;;;;;;;11.67;8.07;;;5.90;90.70;;;;;;6222029;23;20257;-85
2022/01/18 09:41:49;;;;;;;11.63;8.30;;;5.90;90.50;;;;;;6225155;23;20656;-85
2022/01/18 09:44:18;;;;;;;12.47;7.57;;;5.90;90.60;;;;;;6186021;23;20221;-85
2022/01/18 09:46:46;;;;;;;12.97;7.90;;;6.00;90.60;;;;;;6221164;23;20201;-86
2022/01/18 09:49:17;;;;;;;14.13;8.77;;;6.10;90.40;;;;;;6222691;23;20210;-85
2022/01/18 09:51:57;;;;;;;13.33;8.47;;;6.10;89.70;;;;;;6224025;23;20217;-85
2022/01/18 09:54:24;;;;;;;13.57;7.10;;;6.00;90.10;;;;;;6221563;23;20206;-86
2022/01/18 09:56:51;;;;;;;12.67;6.40;;;5.90;89.50;;;;;;6222394;23;20225;-85
2022/01/18 09:59:18;;;;;;;10.63;5.73;;;5.60;89.40;;;;;;6221861;23;20285;-85
2022/01/18 10:01:54;;;;;;;10.07;6.23;;;5.50;89.80;;;;;;6222388;23;20186;-85
2022/01/18 10:04:31;;;;;;;14.00;6.20;;;5.40;90.50;;;;;;6220296;23;20567;-85
2022/01/18 10:06:59;;;;;;;12.53;5.73;;;5.40;90.70;;;;;;6222515;23;20161;-85
2022/01/18 10:09:28;;;;;;;11.70;5.43;;;5.50;90.90;;;;;;6222160;23;20513;-85
2022/01/18 10:12:08;;;;;;;10.57;5.10;;;5.60;90.70;;;;;;6196490;23;20248;-85
2022/01/18 10:14:37;;;;;;;15.03;5.40;;;5.50;90.00;;;;;;6195857;23;20178;-86
2022/01/18 10:17:05;;;;;;;10.93;5.17;;;5.50;90.70;;;;;;6219608;23;20201;-85
2022/01/18 10:19:40;;;;;;;11.67;5.60;;;5.40;89.80;;;;;;6221557;23;20249;-85
2022/01/18 10:22:12;;;;;;;11.77;5.50;;;5.40;90.40;;;;;;6223186;23;20166;-85
2022/01/18 10:24:39;;;;;;;11.37;6.03;;;5.30;90.50;;;;;;6222934;22;20208;-85
2022/01/18 10:27:07;;;;;;;13.10;6.07;;;5.40;90.90;;;;;;6223422;23;20249;-85
2022/01/18 10:29:39;;;;;;;13.50;6.73;;;5.50;90.80;;;;;;6223747;23;20612;-85
2022/01/18 10:32:18;;;;;;;11.50;6.93;;;5.50;91.00;;;;;;6221869;23;20202;-85
2022/01/18 10:37:37;;;;;;;11.03;5.97;;;5.30;91.40;;;;;;6220476;23;20485;-85
2022/01/18 10:40:07;;;;;;;10.10;6.10;;;5.50;92.10;;;;;;6225151;23;20181;-85
2022/01/18 10:42:42;;;;;;;12.80;6.40;;;5.40;91.70;;;;;;6224393;23;20178;-85
2022/01/18 10:45:14;;;;;;;11.63;6.23;;;5.30;91.60;;;;;;6224999;23;20239;-85
2022/01/18 10:54:16;;;;;;;9.60;4.50;;;5.50;91.10;;;;;;6226744;23;20208;-85
2022/01/18 10:56:47;;;;;;;6.97;4.60;;;5.50;90.80;;;;;;6226490;23;20687;-85
2022/01/18 11:02:38;;;;;;;7.57;4.57;;;5.40;90.70;;;;;;6134222;23;20187;-85
2022/01/18 11:08:18;;;;;;;8.23;4.60;;;5.80;89.70;;;;;;6229404;22;20261;-85
2022/01/18 11:10:49;;;;;;;8.60;4.40;;;5.80;89.50;;;;;;6227524;23;20173;-85
2022/01/18 11:13:22;;;;;;;9.40;3.87;;;5.90;89.60;;;;;;6225681;23;20176;-85
2022/01/18 11:16:02;;;;;;;9.17;4.63;;;5.80;88.10;;;;;;6224935;23;20197;-85
2022/01/18 11:25:09;;;;;;;6.97;3.60;;;6.00;88.40;;;;;;6224022;23;20174;-85
2022/01/18 11:27:42;;;;;;;7.63;3.30;;;5.60;87.70;;;;;;6226275;23;20159;-85
2022/01/18 11:30:10;;;;;;;8.10;3.33;;;5.70;85.90;;;;;;6225372;23;20631;-85
2022/01/18 11:32:44;;;;;;;7.30;3.40;;;5.80;82.90;;;;;;6226305;23;20236;-85
2022/01/18 11:35:18;;;;;;;7.10;3.50;;;5.70;82.90;;;;;;6226173;23;20189;-85
2022/01/18 11:37:57;;;;;;;6.40;2.70;;;5.80;82.00;;;;;;6225333;23;20493;-85
2022/01/18 11:40:25;;;;;;;9.17;2.70;;;5.70;81.60;;;;;;6226036;23;20166;-85
2022/01/18 11:42:59;;;;;;;7.90;3.10;;;5.90;80.10;;;;;;6224806;23;20166;-85
2022/01/18 11:48:50;;;;;;;8.07;3.00;;;5.90;79.10;;;;;;6224270;22;20660;-85
2022/01/18 11:51:19;;;;;;;7.93;3.23;;;6.00;79.50;;;;;;6224351;23;20276;-85
2022/01/18 11:53:55;;;;;;;8.23;3.70;;;6.00;80.50;;;;;;6225023;23;20198;-85
2022/01/18 11:56:34;;;;;;;11.43;3.80;;;5.90;79.50;;;;;;6224755;23;20601;-85
2022/01/18 11:59:18;;;;;;;7.03;3.73;;;5.80;79.80;;;;;;6225222;23;20288;-86
2022/01/18 12:02:11;;;;;;;6.80;3.73;;;6.00;80.30;;;;;;6224681;23;20166;-85
2022/01/18 12:05:08;;;;;;;9.00;3.90;;;6.30;81.40;;;;;;6223651;23;20213;-85
2022/01/18 12:07:53;;;;;;;11.90;3.97;;;6.30;80.70;;;;;;6224149;23;20328;-85
2022/01/18 12:10:48;;;;;;;8.60;3.80;;;6.30;79.20;;;;;;6223750;23;20158;-85
2022/01/18 12:13:27;;;;;;;9.73;4.40;;;5.80;80.50;;;;;;6221879;23;20205;-85
2022/01/18 12:15:58;;;;;;;6.33;3.73;;;5.70;82.10;;;;;;6223700;23;20577;-85
2022/01/18 12:18:28;;;;;;;10.57;4.50;;;5.80;82.40;;;;;;6223491;23;20521;-85
2022/01/18 12:20:58;;;;;;;7.47;3.60;;;5.90;82.70;;;;;;6224246;23;20166;-85
2022/01/18 12:23:27;;;;;;;8.80;3.60;;;5.90;82.30;;;;;;6224595;23;20614;-85
2022/01/18 12:26:03;;;;;;;11.00;3.78;;;6.00;82.20;;;;;;6224920;23;20194;-84
2022/01/18 12:28:57;;;;;;;11.40;3.90;;;6.00;80.70;;;;;;6227834;22;20485;-85
2022/01/18 12:35:18;;;;;;;9.47;3.57;;;5.80;82.50;;;;;;6102616;23;20225;-85
2022/01/18 12:38:26;;;;;;;10.70;3.87;;;5.60;82.30;;;;;;6110788;23;20203;-85
2022/01/18 12:40:55;;;;;;;6.53;3.20;;;5.60;82.60;;;;;;6223874;23;20242;-85
2022/01/18 12:49:56;;;;;;;9.63;3.40;;;5.50;80.90;;;;;;6224693;23;20162;-85
2022/01/18 12:52:47;;;;;;;12.50;4.07;;;5.50;81.80;;;;;;6225499;23;20551;-85
2022/01/18 12:55:48;;;;;;;12.17;3.63;;;5.50;81.60;;;;;;6223311;23;20198;-84
2022/01/18 12:58:18;;;;;;;9.80;3.80;;;5.50;80.80;;;;;;6232273;22;20173;-85
2022/01/18 13:00:55;;;;;;;11.77;3.43;;;5.40;81.50;;;;;;6226280;23;20253;-85
2022/01/18 13:03:38;;;;;;;11.20;3.13;;;5.40;81.40;;;;;;6224490;23;20204;-85
2022/01/18 13:06:07;;;;;;;9.60;3.57;;;5.50;80.80;;;;;;6224523;23;20697;-85
2022/01/18 13:08:47;;;;;;;8.07;3.43;;;5.50;80.80;;;;;;6223871;23;20269;-85
2022/01/18 14:59:07;;;;;;;10.87;3.17;;;5.00;69.80;;;;;;6239253;22;20248;-84
2022/01/18 15:01:36;;;;;;;13.97;3.10;;;5.00;69.70;;;;;;6222806;23;20166;-84
2022/01/18 15:04:03;;;;;;;7.77;3.07;;;5.10;69.70;;;;;;6222308;23;20245;-83
2022/01/18 15:06:30;;;;;;;6.10;2.50;;;5.00;69.70;;;;;;6224965;23;20170;-84
2022/01/18 15:08:57;;;;;;;10.37;2.60;;;4.90;69.60;;;;;;6219552;23;20174;-84
2022/01/18 15:11:24;;;;;;;8.20;3.00;;;4.90;69.60;;;;;;6219006;23;20489;-89
2022/01/18 15:14:16;;;;;;;7.43;2.60;;;5.00;69.80;;;;;;6216106;23;20174;-86
2022/01/18 15:16:43;;;;;;;5.37;2.47;;;5.00;69.70;;;;;;6219324;23;20168;-85
2022/01/18 15:19:11;;;;;;;11.07;3.03;;;5.00;69.70;;;;;;6218467;23;20626;-85
2022/01/18 15:21:38;;;;;;;8.00;2.83;;;4.90;69.60;;;;;;6218883;23;20265;-85
2022/01/18 15:24:06;;;;;;;10.37;3.23;;;4.90;69.60;;;;;;6219617;23;20204;-85
2022/01/18 15:26:33;;;;;;;12.03;3.27;;;4.80;69.60;;;;;;6219122;23;20170;-87
2022/01/18 15:29:00;;;;;;;19.13;2.80;;;4.90;69.70;;;;;;6218883;23;20159;-86
2022/01/18 15:31:46;;;;;;;7.53;2.83;;;4.90;69.60;;;;;;6219113;23;20245;-86
2022/01/18 15:34:13;;;;;;;6.80;2.60;;;4.80;69.50;;;;;;6221046;22;20276;-86
2022/01/18 15:36:40;;;;;;;9.13;3.00;;;4.70;69.50;;;;;;6220519;23;20173;-86
2022/01/18 15:39:07;;;;;;;7.33;3.20;;;4.70;69.50;;;;;;6220944;23;20202;-88
2022/01/18 15:41:43;;;;;;;9.77;3.07;;;4.60;69.30;;;;;;6221125;23;20162;-86
2022/01/18 15:44:10;;;;;;;6.90;2.70;;;4.50;69.30;;;;;;6221700;23;20625;-86
2022/01/18 15:50:01;;;;;;;6.60;2.70;;;4.70;69.50;;;;;;6222229;23;20141;-88
2022/01/18 15:52:29;;;;;;;8.90;2.90;;;4.70;69.40;;;;;;6219583;23;20208;-87
2022/01/18 15:54:56;;;;;;;10.10;3.20;;;4.60;69.30;;;;;;6220734;22;20206;-87
2022/01/18 15:57:30;;;;;;;10.83;3.50;;;4.60;69.30;;;;;;6193237;23;20174;-88
2022/01/18 15:59:57;;;;;;;9.83;2.67;;;4.50;69.20;;;;;;6218571;23;20791;-88
2022/01/18 16:02:26;;;;;;;8.63;2.70;;;4.40;69.10;;;;;;6220066;23;20174;-89
2022/01/18 16:04:53;;;;;;;12.50;2.73;;;4.50;69.20;;;;;;6220991;23;20198;-89
2022/01/18 16:10:53;;;;;;;17.80;3.70;;;4.30;69.00;;;;;;6224993;23;20177;-86
2022/01/18 16:13:20;;;;;;;15.27;3.70;;;4.30;71.00;;;;;;6219645;23;20198;-84
2022/01/18 16:15:47;;;;;;;10.07;3.30;;;4.20;70.20;;;;;;6193290;23;20180;-88
2022/01/18 16:18:15;;;;;;;8.17;2.77;;;4.20;71.90;;;;;;6218714;23;20190;-88
2022/01/18 16:20:44;;;;;;;9.27;2.83;;;4.20;72.10;;;;;;6220342;23;20170;-89
2022/01/18 16:23:18;;;;;;;7.93;3.27;;;4.10;72.10;;;;;;6218839;23;20484;-90
2022/01/18 16:25:46;;;;;;;8.33;2.90;;;4.10;71.90;;;;;;6218026;23;20165;-91
2022/01/18 16:28:16;;;;;;;9.40;3.40;;;4.10;72.70;;;;;;6220342;23;20164;-91
2022/01/18 16:30:43;;;;;;;14.50;4.33;;;4.10;73.30;;;;;;6219120;23;20174;-91
2022/01/18 16:33:17;;;;;;;6.87;3.17;;;4.10;73.70;;;;;;6218165;23;20517;-90
2022/01/18 16:35:44;;;;;;;10.17;3.33;;;4.10;74.10;;;;;;6218991;23;20162;-90
2022/01/18 16:38:11;;;;;;;9.93;3.23;;;4.20;72.90;;;;;;6218419;23;20257;-89
2022/01/18 16:40:38;;;;;;;14.10;2.93;;;4.10;72.80;;;;;;6220165;23;20261;-89
2022/01/18 16:43:06;;;;;;;8.47;3.30;;;4.10;73.50;;;;;;6217753;23;20216;-90
2022/01/18 16:45:37;;;;;;;11.60;3.27;;;4.10;72.40;;;;;;6217305;23;20172;-91
2022/01/18 16:48:05;;;;;;;9.47;3.10;;;4.10;72.90;;;;;;6220555;23;20193;-91
2022/01/18 16:50:59;;;;;;;14.70;3.43;;;4.20;69.40;;;;;;6222247;23;20540;-87
2022/01/18 16:53:27;;;;;;;11.70;3.60;;;4.20;70.00;;;;;;6196423;23;20494;-87
2022/01/18 16:55:55;;;;;;;8.23;3.00;;;4.10;72.20;;;;;;6221281;23;20249;-87
2022/01/18 16:58:53;;;;;;;18.27;4.13;;;4.10;72.10;;;;;;6223050;22;20210;-90
2022/01/18 17:01:23;;;;;;;11.77;4.00;;;4.00;72.70;;;;;;6220956;23;20166;-87
2022/01/18 17:03:51;;;;;;;12.20;3.60;;;4.00;73.50;;;;;;6219005;23;20206;-88
2022/01/18 17:06:22;;;;;;;13.17;3.33;;;4.00;72.30;;;;;;6219235;23;20170;-88
2022/01/18 17:08:50;;;;;;;11.70;3.60;;;4.00;72.70;;;;;;6218893;23;20665;-85
2022/01/18 17:11:17;;;;;;;8.77;3.70;;;4.00;72.90;;;;;;6219277;23;20174;-82
2022/01/18 17:13:45;;;;;;;11.27;4.23;;;3.90;73.60;;;;;;6215272;23;20702;-83
2022/01/18 17:16:12;;;;;;;14.23;4.00;;;3.90;73.70;;;;;;6218455;23;20248;-84
2022/01/18 17:18:41;;;;;;;9.37;3.30;;;3.80;74.90;;;;;;6216525;23;20580;-80
2022/01/18 17:21:08;;;;;;;11.13;4.10;;;3.80;74.90;;;;;;6215337;23;20174;-82
2022/01/18 17:23:35;;;;;;;12.13;4.33;;;3.80;75.10;;;;;;6215868;23;20209;-88
2022/01/18 17:26:03;;;;;;;11.23;4.90;;;3.70;75.80;;;;;;6214965;23;20254;-83
2022/01/18 17:28:30;;;;;;;8.17;4.10;;;3.60;77.10;;;;;;6215294;23;20272;-82
2022/01/18 17:30:58;;;;;;;7.60;3.73;;;3.40;78.50;;;;;;6214788;23;20174;-81
2022/01/18 17:33:25;;;;;;;11.97;4.27;;;3.40;80.10;;;;;;6213618;23;20626;-80
2022/01/18 17:35:59;;;;;;;15.90;4.63;;;3.40;79.50;;;;;;6216584;23;20201;-83
2022/01/18 17:38:28;;;;;;;10.60;4.43;;;3.40;79.50;;;;;;6216784;23;20656;-82
2022/01/18 17:40:58;;;;;;;8.27;4.13;;;3.40;80.20;;;;;;6217601;23;20166;-82
2022/01/18 17:43:33;;;;;;;11.50;4.20;;;3.40;80.90;;;;;;6215403;23;20201;-81
2022/01/18 17:46:01;;;;;;;13.97;4.27;;;3.50;80.40;;;;;;6215399;23;20162;-83
2022/01/18 17:48:28;;;;;;;7.73;4.20;;;3.40;81.30;;;;;;6213762;23;20699;-79
2022/01/18 17:50:58;;;;;;;13.67;5.13;;;3.40;82.00;;;;;;6214531;23;20177;-89
2022/01/18 17:53:25;;;;;;;8.53;4.43;;;3.30;82.40;;;;;;6214528;23;20212;-81
2022/01/18 17:55:53;;;;;;;11.73;4.57;;;3.20;83.90;;;;;;6214716;23;20220;-84
2022/01/18 17:58:20;;;;;;;11.00;4.97;;;3.20;84.40;;;;;;6214944;23;20225;-80
2022/01/18 18:00:48;;;;;;;10.57;4.50;;;3.10;84.90;;;;;;6213722;23;20204;-81
2022/01/18 18:03:17;;;;;;;13.13;4.93;;;3.10;86.30;;;;;;6216885;23;20204;-85
2022/01/18 18:05:44;;;;;;;12.23;5.17;;;3.00;87.70;;;;;;6217900;23;20220;-80
2022/01/18 18:08:13;;;;;;;12.73;5.50;;;3.00;87.70;;;;;;6215846;23;20213;-86
2022/01/18 18:10:40;;;;;;;17.33;5.83;;;3.10;88.60;;;;;;6214906;23;20182;-84
2022/01/18 18:13:07;;;;;;;14.70;6.40;;;3.10;87.80;;;;;;6212724;23;20208;-86
2022/01/18 18:15:34;;;;;;;17.13;6.23;;;3.00;87.70;;;;;;6213876;23;20256;-82
2022/01/18 18:18:02;;;;;;;18.13;6.53;;;3.00;87.70;;;;;;6214566;23;20225;-84
2022/01/18 18:20:31;;;;;;;13.40;6.60;;;3.00;87.80;;;;;;6217769;23;20629;-83
2022/01/18 18:22:58;;;;;;;13.53;6.30;;;3.10;87.80;;;;;;6215763;23;20197;-83
2022/01/18 18:25:27;;;;;;;18.33;6.80;;;3.00;87.80;;;;;;6215894;23;20535;-84
2022/01/18 18:27:59;;;;;;;14.20;6.90;;;3.00;87.70;;;;;;6212066;23;20182;-83
2022/01/18 18:30:29;;;;;;;11.60;5.70;;;3.00;87.70;;;;;;6214100;23;20164;-84
2022/01/18 18:32:56;;;;;;;12.70;6.00;;;3.00;87.70;;;;;;6213830;23;20193;-84
2022/01/18 18:35:24;;;;;;;13.33;6.07;;;3.00;87.70;;;;;;6203347;23;20201;-82
2022/01/18 18:37:52;;;;;;;12.43;5.90;;;3.00;87.70;;;;;;6210388;23;20450;-82
2022/01/18 18:40:29;;;;;;;12.43;5.87;;;2.90;87.70;;;;;;6210479;23;20264;-81
2022/01/18 18:43:00;;;;;;;10.73;5.33;;;2.80;88.80;;;;;;6213025;23;20512;-80
2022/01/18 18:45:31;;;;;;;13.67;6.27;;;2.80;88.90;;;;;;6202703;23;20243;-80
2022/01/18 18:48:07;;;;;;;14.23;6.23;;;2.80;88.50;;;;;;6203443;23;20256;-82
2022/01/18 18:50:36;;;;;;;13.33;6.47;;;2.60;90.00;;;;;;6213093;23;20172;-82
2022/01/18 18:53:04;;;;;;;14.23;7.00;;;2.50;90.50;;;;;;6206636;23;20205;-83
2022/01/18 18:55:32;;;;;;;17.47;6.70;;;2.40;90.80;;;;;;6211461;23;20258;-81
2022/01/18 18:58:08;;;;;;;14.60;5.80;;;2.40;91.20;;;;;;6213022;23;20198;-83
2022/01/18 19:00:50;;;;;;;13.63;6.10;;;2.30;91.10;;;;;;6211431;23;20162;-84
2022/01/18 19:03:24;;;;;;;12.33;7.87;;;2.30;91.40;;;;;;6204677;23;20309;-86
2022/01/18 19:05:53;;;;;;;14.10;6.33;;;2.30;91.30;;;;;;6213167;23;20506;-87
2022/01/18 19:08:20;;;;;;;11.97;6.23;;;2.40;91.60;;;;;;6211430;23;20304;-85
2022/01/18 19:10:48;;;;;;;14.37;6.33;;;2.30;91.60;;;;;;6210857;23;20197;-83
2022/01/18 19:13:19;;;;;;;15.67;8.00;;;2.30;91.20;;;;;;6214295;23;20278;-82
2022/01/18 19:15:48;;;;;;;15.53;7.43;;;2.20;91.50;;;;;;6215265;23;20232;-82
2022/01/18 19:18:18;;;;;;;18.03;7.30;;;2.10;91.70;;;;;;6213019;23;20366;-82
2022/01/18 19:20:47;;;;;;;12.90;6.63;;;2.10;91.70;;;;;;6214591;23;20182;-82
2022/01/18 19:23:14;;;;;;;18.63;7.20;;;2.00;91.90;;;;;;6215662;23;20198;-82
2022/01/18 19:25:41;;;;;;;12.10;7.50;;;2.00;92.20;;;;;;6214819;23;20185;-83
2022/01/18 19:28:12;;;;;;;11.30;6.57;;;1.90;92.60;;;;;;6214633;23;20276;-83
2022/01/18 19:30:41;;;;;;;14.27;7.53;;;1.90;93.00;;;;;;6216245;23;20724;-81
2022/01/18 19:33:08;;;;;;;10.97;7.00;;;2.10;92.20;;;;;;6213941;23;20208;-84
2022/01/18 19:35:35;;;;;;;14.67;7.33;;;2.00;91.90;;;;;;6215870;23;20629;-82
2022/01/18 19:38:03;;;;;;;12.33;7.20;;;1.90;92.20;;;;;;6214370;23;20523;-84
2022/01/18 19:40:30;;;;;;;13.23;7.20;;;1.90;92.30;;;;;;6213172;23;20280;-84
2022/01/18 19:42:57;;;;;;;16.97;7.43;;;1.90;92.50;;;;;;6213361;23;20174;-87
2022/01/18 19:45:27;;;;;;;19.73;10.43;;;1.80;92.70;;;;;;6211187;23;20178;-82
2022/01/18 19:47:58;;;;;;;15.63;7.90;;;1.90;93.10;;;;;;6214170;23;20162;-84
2022/01/18 19:50:29;;;;;;;15.07;7.27;;;1.80;92.50;;;;;;6216853;23;20166;-81
2022/01/18 19:52:59;;;;;;;16.30;7.53;;;1.90;92.50;;;;;;6216253;23;20190;-79
2022/01/18 19:55:28;;;;;;;19.73;7.40;;;1.90;92.70;;;;;;6216936;23;20237;-81
2022/01/18 19:57:56;;;;;;;15.47;7.80;;;1.90;92.40;;;;;;6218487;22;20162;-80
2022/01/18 20:00:26;;;;;;;18.30;7.83;;;1.80;92.30;;;;;;6217079;23;20212;-80
2022/01/18 20:02:55;;;;;;;16.27;8.20;;;1.70;92.40;;;;;;6216305;23;20166;-82
2022/01/18 20:05:22;;;;;;;12.03;7.10;;;1.80;92.70;;;;;;6217447;23;20182;-81
2022/01/18 20:07:50;;;;;;;12.13;6.70;;;1.90;92.70;;;;;;6216535;23;20629;-85
2022/01/18 20:10:17;;;;;;;13.30;6.57;;;1.80;92.60;;;;;;6216614;23;20509;-80
2022/01/18 20:13:03;;;;;;;16.20;7.47;;;1.90;92.60;;;;;;6215643;23;20185;-81
2022/01/18 20:15:30;;;;;;;13.80;6.40;;;1.90;92.30;;;;;;6217460;23;20685;-80
2022/01/18 20:17:59;;;;;;;12.77;6.90;;;1.90;92.40;;;;;;6219216;23;20276;-81
2022/01/18 20:20:29;;;;;;;17.50;6.83;;;1.80;92.40;;;;;;6216386;23;20174;-80
2022/01/18 20:22:56;;;;;;;13.30;6.07;;;1.80;92.40;;;;;;6218000;23;20162;-81
2022/01/18 20:25:23;;;;;;;12.73;5.97;;;1.80;92.40;;;;;;6217217;23;20198;-81
2022/01/18 20:27:51;;;;;;;11.90;5.97;;;1.80;92.30;;;;;;6215835;23;20212;-83
2022/01/18 20:30:21;;;;;;;11.00;5.53;;;1.80;92.30;;;;;;6216753;23;20166;-82
2022/01/18 20:32:50;;;;;;;16.00;5.60;;;1.80;92.20;;;;;;6215310;23;20493;-82
2022/01/18 20:35:22;;;;;;;14.03;5.70;;;1.80;91.80;;;;;;6215154;23;20174;-81
2022/01/18 20:37:51;;;;;;;11.47;6.03;;;1.70;91.90;;;;;;6215445;23;20162;-80
2022/01/18 20:40:23;;;;;;;10.90;5.50;;;1.70;92.00;;;;;;6214869;23;20170;-82
2022/01/18 20:45:36;;;;;;;11.90;5.40;;;1.50;92.30;;;;;;6215734;23;20160;-83
2022/01/18 20:48:07;;;;;;;10.00;4.63;;;1.40;92.40;;;;;;6216828;23;20209;-81
2022/01/18 20:50:36;;;;;;;10.10;5.27;;;1.40;92.40;;;;;;6216653;23;20602;-80
2022/01/18 20:53:05;;;;;;;10.90;5.57;;;1.40;92.70;;;;;;6215687;23;20245;-83
2022/01/18 20:55:32;;;;;;;15.73;5.87;;;1.30;92.70;;;;;;6217089;23;20213;-81
2022/01/18 20:58:00;;;;;;;18.13;6.10;;;1.20;93.20;;;;;;6217111;23;20584;-82
2022/01/18 21:00:30;;;;;;;12.30;5.70;;;1.10;93.00;;;;;;6217065;23;20186;-81
2022/01/18 21:02:57;;;;;;;13.83;6.07;;;1.20;93.10;;;;;;6216487;23;20168;-83
2022/01/18 21:05:24;;;;;;;13.30;5.87;;;1.20;93.10;;;;;;6215415;23;20849;-82
2022/01/18 21:07:53;;;;;;;12.27;5.90;;;1.30;93.00;;;;;;6216323;23;20181;-80
2022/01/18 21:10:20;;;;;;;14.17;5.67;;;1.30;92.80;;;;;;6215332;23;20675;-83
2022/01/18 21:12:50;;;;;;;11.13;6.10;;;1.30;92.70;;;;;;6216509;23;20178;-80
2022/01/18 21:15:25;;;;;;;14.47;6.20;;;1.10;92.80;;;;;;6215805;23;20186;-80
2022/01/18 21:17:52;;;;;;;15.53;6.03;;;1.10;93.20;;;;;;6214073;23;20197;-84
2022/01/18 21:20:20;;;;;;;12.57;6.47;;;1.10;93.00;;;;;;6217657;23;20181;-80
2022/01/18 21:22:47;;;;;;;11.17;6.60;;;1.00;93.40;;;;;;6218181;22;20158;-81
2022/01/18 21:25:18;;;;;;;13.17;6.20;;;0.90;93.50;;;;;;6217571;23;20184;-82
2022/01/18 21:27:45;;;;;;;10.20;5.67;;;1.00;93.60;;;;;;6217117;23;20166;-80
2022/01/18 21:30:12;;;;;;;16.77;6.20;;;0.90;93.70;;;;;;6216890;23;20264;-81
2022/01/18 21:32:39;;;;;;;13.27;5.47;;;1.00;93.70;;;;;;6215822;23;20173;-81
2022/01/18 21:35:08;;;;;;;14.63;5.70;;;1.00;93.50;;;;;;6217200;23;20194;-83
2022/01/18 21:37:35;;;;;;;16.23;5.47;;;0.90;93.50;;;;;;6218406;23;20170;-81
2022/01/18 21:40:04;;;;;;;13.03;4.90;;;0.90;93.50;;;;;;6215512;23;20724;-82
2022/01/18 21:42:33;;;;;;;13.57;5.20;;;0.90;93.50;;;;;;6215366;23;20178;-82
2022/01/18 21:45:00;;;;;;;11.50;4.80;;;0.90;93.30;;;;;;6219809;23;20732;-82
2022/01/18 21:47:27;;;;;;;10.07;5.00;;;0.90;93.50;;;;;;6218452;23;20277;-80
2022/01/18 21:49:55;;;;;;;9.60;4.57;;;0.90;93.40;;;;;;6218944;23;20206;-83
2022/01/18 21:52:22;;;;;;;11.47;5.17;;;1.00;93.30;;;;;;6217260;23;20174;-82